sensor_id;sensor_type;location;lat;lon;timestamp;P1;durP1;ratioP1;P2;durP2;ratioP2
4676;SDS011;2352;48.180;11.478;2022-10-16T00:01:33;2.73;;;1.60;;
4676;SDS011;2352;48.180;11.478;2022-10-16T00:04:36;1.20;;;1.13;;
4676;SDS011;2352;48.180;11.478;2022-10-16T00:07:40;1.00;;;0.90;;
4676;SDS011;2352;48.180;11.478;2022-10-16T00:10:43;2.60;;;1.33;;
4676;SDS011;2352;48.180;11.478;2022-10-16T00:13:47;2.47;;;1.20;;
4676;SDS011;2352;48.180;11.478;2022-10-16T00:16:51;1.20;;;1.07;;
4676;SDS011;2352;48.180;11.478;2022-10-16T00:19:54;1.20;;;0.97;;
4676;SDS011;2352;48.180;11.478;2022-10-16T00:22:59;1.23;;;1.10;;
4676;SDS011;2352;48.180;11.478;2022-10-16T00:26:03;4.77;;;1.10;;
4676;SDS011;2352;48.180;11.478;2022-10-16T00:29:07;0.87;;;0.87;;
4676;SDS011;2352;48.180;11.478;2022-10-16T00:32:10;5.50;;;1.40;;
4676;SDS011;2352;48.180;11.478;2022-10-16T00:35:13;1.27;;;0.97;;
4676;SDS011;2352;48.180;11.478;2022-10-16T00:38:17;1.37;;;0.90;;
4676;SDS011;2352;48.180;11.478;2022-10-16T00:41:21;0.53;;;0.53;;
4676;SDS011;2352;48.180;11.478;2022-10-16T00:44:42;0.87;;;0.83;;
4676;SDS011;2352;48.180;11.478;2022-10-16T00:47:47;1.30;;;0.90;;
4676;SDS011;2352;48.180;11.478;2022-10-16T00:50:52;0.93;;;0.93;;
4676;SDS011;2352;48.180;11.478;2022-10-16T00:53:57;0.97;;;0.90;;
4676;SDS011;2352;48.180;11.478;2022-10-16T00:57:01;0.87;;;0.80;;
4676;SDS011;2352;48.180;11.478;2022-10-16T01:00:07;0.93;;;0.70;;
4676;SDS011;2352;48.180;11.478;2022-10-16T01:03:22;0.70;;;0.70;;
4676;SDS011;2352;48.180;11.478;2022-10-16T01:06:28;2.17;;;1.10;;
4676;SDS011;2352;48.180;11.478;2022-10-16T01:09:40;1.10;;;1.00;;
4676;SDS011;2352;48.180;11.478;2022-10-16T01:12:49;1.77;;;1.30;;
4676;SDS011;2352;48.180;11.478;2022-10-16T01:15:54;1.27;;;1.17;;
4676;SDS011;2352;48.180;11.478;2022-10-16T01:19:00;0.70;;;0.70;;
4676;SDS011;2352;48.180;11.478;2022-10-16T01:22:08;1.10;;;0.90;;
4676;SDS011;2352;48.180;11.478;2022-10-16T01:25:15;0.83;;;0.83;;
4676;SDS011;2352;48.180;11.478;2022-10-16T01:28:21;1.83;;;0.90;;
4676;SDS011;2352;48.180;11.478;2022-10-16T01:31:27;0.63;;;0.63;;
4676;SDS011;2352;48.180;11.478;2022-10-16T01:34:32;0.80;;;0.80;;
4676;SDS011;2352;48.180;11.478;2022-10-16T01:37:39;1.30;;;0.80;;
4676;SDS011;2352;48.180;11.478;2022-10-16T01:40:44;2.93;;;1.77;;
4676;SDS011;2352;48.180;11.478;2022-10-16T01:43:51;0.70;;;0.70;;
4676;SDS011;2352;48.180;11.478;2022-10-16T01:46:56;0.60;;;0.60;;
4676;SDS011;2352;48.180;11.478;2022-10-16T01:49:59;2.87;;;0.80;;
4676;SDS011;2352;48.180;11.478;2022-10-16T01:53:06;1.40;;;0.97;;
4676;SDS011;2352;48.180;11.478;2022-10-16T01:56:11;0.53;;;0.53;;
4676;SDS011;2352;48.180;11.478;2022-10-16T01:59:17;1.00;;;0.70;;
4676;SDS011;2352;48.180;11.478;2022-10-16T02:02:21;0.87;;;0.87;;
4676;SDS011;2352;48.180;11.478;2022-10-16T02:05:26;1.47;;;0.70;;
4676;SDS011;2352;48.180;11.478;2022-10-16T02:08:31;1.43;;;0.80;;
4676;SDS011;2352;48.180;11.478;2022-10-16T02:11:34;6.03;;;0.83;;
4676;SDS011;2352;48.180;11.478;2022-10-16T02:14:39;0.60;;;0.60;;
4676;SDS011;2352;48.180;11.478;2022-10-16T02:17:42;0.80;;;0.80;;
4676;SDS011;2352;48.180;11.478;2022-10-16T02:20:47;0.70;;;0.70;;
4676;SDS011;2352;48.180;11.478;2022-10-16T02:23:54;0.70;;;0.70;;
4676;SDS011;2352;48.180;11.478;2022-10-16T02:27:03;1.00;;;0.80;;
4676;SDS011;2352;48.180;11.478;2022-10-16T02:30:13;0.80;;;0.80;;
4676;SDS011;2352;48.180;11.478;2022-10-16T02:33:19;1.00;;;0.97;;
4676;SDS011;2352;48.180;11.478;2022-10-16T02:36:24;1.20;;;0.90;;
4676;SDS011;2352;48.180;11.478;2022-10-16T02:39:28;0.77;;;0.77;;
4676;SDS011;2352;48.180;11.478;2022-10-16T02:42:33;1.47;;;0.77;;
4676;SDS011;2352;48.180;11.478;2022-10-16T02:45:38;0.70;;;0.70;;
4676;SDS011;2352;48.180;11.478;2022-10-16T02:48:41;0.70;;;0.70;;
4676;SDS011;2352;48.180;11.478;2022-10-16T02:51:44;0.73;;;0.60;;
4676;SDS011;2352;48.180;11.478;2022-10-16T02:54:47;1.70;;;0.80;;
4676;SDS011;2352;48.180;11.478;2022-10-16T02:57:50;0.73;;;0.73;;
4676;SDS011;2352;48.180;11.478;2022-10-16T03:00:55;2.93;;;0.70;;
4676;SDS011;2352;48.180;11.478;2022-10-16T03:03:58;1.23;;;0.67;;
4676;SDS011;2352;48.180;11.478;2022-10-16T03:07:00;1.53;;;1.43;;
4676;SDS011;2352;48.180;11.478;2022-10-16T03:10:04;0.60;;;0.60;;
4676;SDS011;2352;48.180;11.478;2022-10-16T03:13:07;0.70;;;0.70;;
4676;SDS011;2352;48.180;11.478;2022-10-16T03:16:11;0.70;;;0.70;;
4676;SDS011;2352;48.180;11.478;2022-10-16T03:19:15;0.63;;;0.63;;
4676;SDS011;2352;48.180;11.478;2022-10-16T03:22:18;0.70;;;0.70;;
4676;SDS011;2352;48.180;11.478;2022-10-16T03:25:21;0.80;;;0.70;;
4676;SDS011;2352;48.180;11.478;2022-10-16T03:28:24;1.10;;;0.93;;
4676;SDS011;2352;48.180;11.478;2022-10-16T03:31:28;0.57;;;0.57;;
4676;SDS011;2352;48.180;11.478;2022-10-16T03:34:31;0.80;;;0.80;;
4676;SDS011;2352;48.180;11.478;2022-10-16T03:37:34;1.23;;;0.87;;
4676;SDS011;2352;48.180;11.478;2022-10-16T03:40:37;0.63;;;0.63;;
4676;SDS011;2352;48.180;11.478;2022-10-16T03:43:40;1.50;;;0.73;;
4676;SDS011;2352;48.180;11.478;2022-10-16T03:46:44;0.60;;;0.60;;
4676;SDS011;2352;48.180;11.478;2022-10-16T03:49:47;0.53;;;0.53;;
4676;SDS011;2352;48.180;11.478;2022-10-16T03:52:50;0.90;;;0.60;;
4676;SDS011;2352;48.180;11.478;2022-10-16T03:55:53;0.90;;;0.80;;
4676;SDS011;2352;48.180;11.478;2022-10-16T03:58:56;0.83;;;0.83;;
4676;SDS011;2352;48.180;11.478;2022-10-16T04:02:00;0.60;;;0.60;;
4676;SDS011;2352;48.180;11.478;2022-10-16T04:05:03;0.70;;;0.70;;
4676;SDS011;2352;48.180;11.478;2022-10-16T04:08:06;0.63;;;0.63;;
4676;SDS011;2352;48.180;11.478;2022-10-16T04:11:09;5.03;;;0.87;;
4676;SDS011;2352;48.180;11.478;2022-10-16T04:14:12;0.93;;;0.80;;
4676;SDS011;2352;48.180;11.478;2022-10-16T04:17:16;2.10;;;0.60;;
4676;SDS011;2352;48.180;11.478;2022-10-16T04:20:19;0.70;;;0.70;;
4676;SDS011;2352;48.180;11.478;2022-10-16T04:23:23;1.57;;;0.70;;
4676;SDS011;2352;48.180;11.478;2022-10-16T04:26:26;1.70;;;0.80;;
4676;SDS011;2352;48.180;11.478;2022-10-16T04:29:28;0.60;;;0.60;;
4676;SDS011;2352;48.180;11.478;2022-10-16T04:32:32;0.70;;;0.70;;
4676;SDS011;2352;48.180;11.478;2022-10-16T04:35:35;0.70;;;0.70;;
4676;SDS011;2352;48.180;11.478;2022-10-16T04:38:38;0.50;;;0.50;;
4676;SDS011;2352;48.180;11.478;2022-10-16T04:41:41;0.40;;;0.40;;
4676;SDS011;2352;48.180;11.478;2022-10-16T04:44:44;2.40;;;0.70;;
4676;SDS011;2352;48.180;11.478;2022-10-16T04:47:48;0.67;;;0.67;;
4676;SDS011;2352;48.180;11.478;2022-10-16T04:50:51;0.80;;;0.63;;
4676;SDS011;2352;48.180;11.478;2022-10-16T04:53:55;0.63;;;0.63;;
4676;SDS011;2352;48.180;11.478;2022-10-16T04:56:58;1.07;;;0.90;;
4676;SDS011;2352;48.180;11.478;2022-10-16T05:00:01;0.60;;;0.60;;
4676;SDS011;2352;48.180;11.478;2022-10-16T05:03:06;1.73;;;0.90;;
4676;SDS011;2352;48.180;11.478;2022-10-16T05:06:10;1.30;;;0.70;;
4676;SDS011;2352;48.180;11.478;2022-10-16T05:09:13;0.63;;;0.63;;
4676;SDS011;2352;48.180;11.478;2022-10-16T05:12:16;1.40;;;0.90;;
4676;SDS011;2352;48.180;11.478;2022-10-16T05:15:18;2.67;;;0.97;;
4676;SDS011;2352;48.180;11.478;2022-10-16T05:18:23;1.33;;;1.17;;
4676;SDS011;2352;48.180;11.478;2022-10-16T05:21:25;1.60;;;0.90;;
4676;SDS011;2352;48.180;11.478;2022-10-16T05:24:28;1.30;;;1.10;;
4676;SDS011;2352;48.180;11.478;2022-10-16T05:27:31;1.10;;;1.00;;
4676;SDS011;2352;48.180;11.478;2022-10-16T05:30:34;0.80;;;0.80;;
4676;SDS011;2352;48.180;11.478;2022-10-16T05:33:41;0.83;;;0.70;;
4676;SDS011;2352;48.180;11.478;2022-10-16T05:36:45;0.60;;;0.60;;
4676;SDS011;2352;48.180;11.478;2022-10-16T05:39:48;2.77;;;1.17;;
4676;SDS011;2352;48.180;11.478;2022-10-16T05:42:54;0.80;;;0.80;;
4676;SDS011;2352;48.180;11.478;2022-10-16T05:45:57;0.83;;;0.83;;
4676;SDS011;2352;48.180;11.478;2022-10-16T05:49:03;2.93;;;0.90;;
4676;SDS011;2352;48.180;11.478;2022-10-16T05:52:06;0.70;;;0.70;;
4676;SDS011;2352;48.180;11.478;2022-10-16T05:55:09;1.20;;;1.13;;
4676;SDS011;2352;48.180;11.478;2022-10-16T05:58:12;1.40;;;1.00;;
4676;SDS011;2352;48.180;11.478;2022-10-16T06:01:15;1.13;;;1.00;;
4676;SDS011;2352;48.180;11.478;2022-10-16T06:04:21;1.57;;;1.47;;
4676;SDS011;2352;48.180;11.478;2022-10-16T06:07:23;1.20;;;0.97;;
4676;SDS011;2352;48.180;11.478;2022-10-16T06:10:26;1.73;;;1.23;;
4676;SDS011;2352;48.180;11.478;2022-10-16T06:13:30;1.10;;;1.00;;
4676;SDS011;2352;48.180;11.478;2022-10-16T06:16:33;1.50;;;1.20;;
4676;SDS011;2352;48.180;11.478;2022-10-16T06:19:38;1.33;;;1.23;;
4676;SDS011;2352;48.180;11.478;2022-10-16T06:22:41;4.00;;;0.90;;
4676;SDS011;2352;48.180;11.478;2022-10-16T06:25:44;1.30;;;1.20;;
4676;SDS011;2352;48.180;11.478;2022-10-16T06:28:47;3.53;;;1.60;;
4676;SDS011;2352;48.180;11.478;2022-10-16T06:31:51;1.53;;;1.43;;
4676;SDS011;2352;48.180;11.478;2022-10-16T06:34:55;1.40;;;1.23;;
4676;SDS011;2352;48.180;11.478;2022-10-16T06:37:58;2.27;;;1.10;;
4676;SDS011;2352;48.180;11.478;2022-10-16T06:41:00;2.97;;;1.60;;
4676;SDS011;2352;48.180;11.478;2022-10-16T06:44:05;1.50;;;1.40;;
4676;SDS011;2352;48.180;11.478;2022-10-16T06:47:08;1.83;;;1.27;;
4676;SDS011;2352;48.180;11.478;2022-10-16T06:50:12;1.10;;;1.00;;
4676;SDS011;2352;48.180;11.478;2022-10-16T06:53:15;6.20;;;1.07;;
4676;SDS011;2352;48.180;11.478;2022-10-16T06:56:18;1.43;;;1.33;;
4676;SDS011;2352;48.180;11.478;2022-10-16T06:59:23;1.73;;;1.27;;
4676;SDS011;2352;48.180;11.478;2022-10-16T07:02:25;0.80;;;0.80;;
4676;SDS011;2352;48.180;11.478;2022-10-16T07:05:30;1.10;;;1.00;;
4676;SDS011;2352;48.180;11.478;2022-10-16T07:08:33;1.37;;;1.23;;
4676;SDS011;2352;48.180;11.478;2022-10-16T07:11:37;1.40;;;0.90;;
4676;SDS011;2352;48.180;11.478;2022-10-16T07:14:41;1.63;;;1.10;;
4676;SDS011;2352;48.180;11.478;2022-10-16T07:17:44;1.30;;;1.20;;
4676;SDS011;2352;48.180;11.478;2022-10-16T07:20:48;1.80;;;1.70;;
4676;SDS011;2352;48.180;11.478;2022-10-16T07:23:51;1.40;;;1.30;;
4676;SDS011;2352;48.180;11.478;2022-10-16T07:26:54;2.03;;;1.83;;
4676;SDS011;2352;48.180;11.478;2022-10-16T07:29:57;3.23;;;2.10;;
4676;SDS011;2352;48.180;11.478;2022-10-16T07:33:05;4.17;;;1.63;;
4676;SDS011;2352;48.180;11.478;2022-10-16T07:36:09;1.63;;;1.53;;
4676;SDS011;2352;48.180;11.478;2022-10-16T07:39:16;1.87;;;1.77;;
4676;SDS011;2352;48.180;11.478;2022-10-16T07:42:20;1.60;;;1.50;;
4676;SDS011;2352;48.180;11.478;2022-10-16T07:45:22;4.70;;;1.90;;
4676;SDS011;2352;48.180;11.478;2022-10-16T07:48:26;2.03;;;1.93;;
4676;SDS011;2352;48.180;11.478;2022-10-16T07:51:31;1.77;;;1.67;;
4676;SDS011;2352;48.180;11.478;2022-10-16T07:54:34;1.70;;;1.60;;
4676;SDS011;2352;48.180;11.478;2022-10-16T07:57:37;1.80;;;1.70;;
4676;SDS011;2352;48.180;11.478;2022-10-16T08:00:40;3.70;;;2.20;;
4676;SDS011;2352;48.180;11.478;2022-10-16T08:03:43;2.20;;;2.10;;
4676;SDS011;2352;48.180;11.478;2022-10-16T08:06:48;1.53;;;1.43;;
4676;SDS011;2352;48.180;11.478;2022-10-16T08:09:51;2.63;;;1.40;;
4676;SDS011;2352;48.180;11.478;2022-10-16T08:12:53;2.50;;;1.30;;
4676;SDS011;2352;48.180;11.478;2022-10-16T08:15:57;1.87;;;1.10;;
4676;SDS011;2352;48.180;11.478;2022-10-16T08:19:00;1.80;;;1.70;;
4676;SDS011;2352;48.180;11.478;2022-10-16T08:22:05;2.00;;;1.90;;
4676;SDS011;2352;48.180;11.478;2022-10-16T08:25:08;1.73;;;1.63;;
4676;SDS011;2352;48.180;11.478;2022-10-16T08:28:11;18.37;;;16.33;;
4676;SDS011;2352;48.180;11.478;2022-10-16T08:31:14;4.87;;;4.47;;
4676;SDS011;2352;48.180;11.478;2022-10-16T08:34:22;2.53;;;2.33;;
4676;SDS011;2352;48.180;11.478;2022-10-16T08:37:30;2.43;;;2.23;;
4676;SDS011;2352;48.180;11.478;2022-10-16T08:40:34;1.93;;;1.83;;
4676;SDS011;2352;48.180;11.478;2022-10-16T08:43:43;1.93;;;1.83;;
4676;SDS011;2352;48.180;11.478;2022-10-16T08:47:02;2.30;;;2.10;;
4676;SDS011;2352;48.180;11.478;2022-10-16T08:50:13;3.07;;;2.07;;
4676;SDS011;2352;48.180;11.478;2022-10-16T08:53:23;1.87;;;1.77;;
4676;SDS011;2352;48.180;11.478;2022-10-16T08:56:29;2.10;;;2.00;;
4676;SDS011;2352;48.180;11.478;2022-10-16T08:59:34;7.67;;;4.17;;
4676;SDS011;2352;48.180;11.478;2022-10-16T09:02:37;2.30;;;2.10;;
4676;SDS011;2352;48.180;11.478;2022-10-16T09:05:45;1.60;;;1.50;;
4676;SDS011;2352;48.180;11.478;2022-10-16T09:09:08;1.70;;;1.60;;
4676;SDS011;2352;48.180;11.478;2022-10-16T09:12:26;3.23;;;2.10;;
4676;SDS011;2352;48.180;11.478;2022-10-16T09:15:35;2.23;;;1.60;;
4676;SDS011;2352;48.180;11.478;2022-10-16T09:18:47;1.40;;;1.30;;
4676;SDS011;2352;48.180;11.478;2022-10-16T09:21:57;5.60;;;1.57;;
4676;SDS011;2352;48.180;11.478;2022-10-16T09:25:10;1.53;;;1.43;;
4676;SDS011;2352;48.180;11.478;2022-10-16T09:28:15;1.70;;;1.60;;
4676;SDS011;2352;48.180;11.478;2022-10-16T09:31:19;1.90;;;1.77;;
4676;SDS011;2352;48.180;11.478;2022-10-16T09:34:24;1.40;;;1.30;;
4676;SDS011;2352;48.180;11.478;2022-10-16T09:37:32;1.45;;;1.35;;
4676;SDS011;2352;48.180;11.478;2022-10-16T09:40:37;1.73;;;1.63;;
4676;SDS011;2352;48.180;11.478;2022-10-16T09:43:46;1.85;;;1.55;;
4676;SDS011;2352;48.180;11.478;2022-10-16T09:47:00;1.42;;;1.33;;
4676;SDS011;2352;48.180;11.478;2022-10-16T09:50:13;1.40;;;1.30;;
4676;SDS011;2352;48.180;11.478;2022-10-16T09:53:23;1.48;;;1.38;;
4676;SDS011;2352;48.180;11.478;2022-10-16T09:56:29;1.67;;;1.58;;
4676;SDS011;2352;48.180;11.478;2022-10-16T09:59:34;2.17;;;1.30;;
4676;SDS011;2352;48.180;11.478;2022-10-16T10:02:49;4.88;;;1.67;;
4676;SDS011;2352;48.180;11.478;2022-10-16T10:05:52;4.43;;;4.10;;
4676;SDS011;2352;48.180;11.478;2022-10-16T10:09:03;7.05;;;6.00;;
4676;SDS011;2352;48.180;11.478;2022-10-16T10:12:16;15.80;;;11.85;;
4676;SDS011;2352;48.180;11.478;2022-10-16T10:15:26;5.60;;;5.10;;
4676;SDS011;2352;48.180;11.478;2022-10-16T10:18:31;4.25;;;3.85;;
4676;SDS011;2352;48.180;11.478;2022-10-16T10:21:34;1.48;;;1.38;;
4676;SDS011;2352;48.180;11.478;2022-10-16T10:24:40;3.03;;;1.60;;
4676;SDS011;2352;48.180;11.478;2022-10-16T10:27:49;1.02;;;1.02;;
4676;SDS011;2352;48.180;11.478;2022-10-16T10:31:06;0.95;;;0.95;;
4676;SDS011;2352;48.180;11.478;2022-10-16T10:34:22;1.42;;;1.23;;
4676;SDS011;2352;48.180;11.478;2022-10-16T10:37:47;1.30;;;1.20;;
4676;SDS011;2352;48.180;11.478;2022-10-16T10:41:08;1.20;;;1.10;;
4676;SDS011;2352;48.180;11.478;2022-10-16T10:44:45;1.60;;;0.93;;
4676;SDS011;2352;48.180;11.478;2022-10-16T10:48:03;0.90;;;0.90;;
4676;SDS011;2352;48.180;11.478;2022-10-16T10:51:20;4.07;;;0.80;;
4676;SDS011;2352;48.180;11.478;2022-10-16T10:54:32;1.15;;;0.90;;
4676;SDS011;2352;48.180;11.478;2022-10-16T10:57:41;0.65;;;0.65;;
4676;SDS011;2352;48.180;11.478;2022-10-16T11:01:03;1.05;;;1.05;;
4676;SDS011;2352;48.180;11.478;2022-10-16T11:04:15;1.25;;;1.15;;
4676;SDS011;2352;48.180;11.478;2022-10-16T11:07:42;0.82;;;0.82;;
4676;SDS011;2352;48.180;11.478;2022-10-16T11:10:51;0.90;;;0.90;;
4676;SDS011;2352;48.180;11.478;2022-10-16T11:13:58;1.13;;;1.02;;
4676;SDS011;2352;48.180;11.478;2022-10-16T11:17:07;3.00;;;1.98;;
4676;SDS011;2352;48.180;11.478;2022-10-16T11:20:14;1.40;;;1.30;;
4676;SDS011;2352;48.180;11.478;2022-10-16T11:23:23;1.17;;;1.00;;
4676;SDS011;2352;48.180;11.478;2022-10-16T11:26:30;1.40;;;1.30;;
4676;SDS011;2352;48.180;11.478;2022-10-16T11:29:40;3.70;;;0.80;;
4676;SDS011;2352;48.180;11.478;2022-10-16T11:32:52;2.83;;;1.05;;
4676;SDS011;2352;48.180;11.478;2022-10-16T11:36:06;9.68;;;1.42;;
4676;SDS011;2352;48.180;11.478;2022-10-16T11:39:18;1.05;;;1.05;;
4676;SDS011;2352;48.180;11.478;2022-10-16T11:42:25;2.33;;;1.45;;
4676;SDS011;2352;48.180;11.478;2022-10-16T11:45:36;1.10;;;1.00;;
4676;SDS011;2352;48.180;11.478;2022-10-16T11:48:45;0.80;;;0.80;;
4676;SDS011;2352;48.180;11.478;2022-10-16T11:51:53;0.80;;;0.80;;
4676;SDS011;2352;48.180;11.478;2022-10-16T11:55:04;2.60;;;1.00;;
4676;SDS011;2352;48.180;11.478;2022-10-16T11:58:19;1.95;;;0.70;;
4676;SDS011;2352;48.180;11.478;2022-10-16T12:01:28;0.70;;;0.70;;
4676;SDS011;2352;48.180;11.478;2022-10-16T12:04:39;0.70;;;0.70;;
4676;SDS011;2352;48.180;11.478;2022-10-16T12:07:48;1.30;;;1.00;;
4676;SDS011;2352;48.180;11.478;2022-10-16T12:11:06;3.28;;;0.60;;
4676;SDS011;2352;48.180;11.478;2022-10-16T12:14:20;0.98;;;0.88;;
4676;SDS011;2352;48.180;11.478;2022-10-16T12:17:52;2.08;;;0.68;;
4676;SDS011;2352;48.180;11.478;2022-10-16T12:20:57;1.38;;;0.90;;
4676;SDS011;2352;48.180;11.478;2022-10-16T12:24:06;0.40;;;0.40;;
4676;SDS011;2352;48.180;11.478;2022-10-16T12:27:27;0.40;;;0.40;;
4676;SDS011;2352;48.180;11.478;2022-10-16T12:30:33;0.88;;;0.30;;
4676;SDS011;2352;48.180;11.478;2022-10-16T12:33:37;0.43;;;0.40;;
4676;SDS011;2352;48.180;11.478;2022-10-16T12:36:45;0.30;;;0.30;;
4676;SDS011;2352;48.180;11.478;2022-10-16T12:39:48;2.05;;;0.50;;
4676;SDS011;2352;48.180;11.478;2022-10-16T12:42:51;0.77;;;0.52;;
4676;SDS011;2352;48.180;11.478;2022-10-16T12:46:01;0.47;;;0.30;;
4676;SDS011;2352;48.180;11.478;2022-10-16T12:49:16;0.30;;;0.30;;
4676;SDS011;2352;48.180;11.478;2022-10-16T12:52:28;0.73;;;0.50;;
4676;SDS011;2352;48.180;11.478;2022-10-16T12:55:42;0.32;;;0.32;;
4676;SDS011;2352;48.180;11.478;2022-10-16T12:58:56;0.40;;;0.30;;
4676;SDS011;2352;48.180;11.478;2022-10-16T13:02:18;2.08;;;0.30;;
4676;SDS011;2352;48.180;11.478;2022-10-16T13:05:40;0.40;;;0.40;;
4676;SDS011;2352;48.180;11.478;2022-10-16T13:09:02;0.40;;;0.40;;
4676;SDS011;2352;48.180;11.478;2022-10-16T13:12:21;0.40;;;0.40;;
4676;SDS011;2352;48.180;11.478;2022-10-16T13:15:49;0.40;;;0.40;;
4676;SDS011;2352;48.180;11.478;2022-10-16T13:19:07;1.17;;;0.80;;
4676;SDS011;2352;48.180;11.478;2022-10-16T13:22:22;0.40;;;0.40;;
4676;SDS011;2352;48.180;11.478;2022-10-16T13:25:34;0.75;;;0.30;;
4676;SDS011;2352;48.180;11.478;2022-10-16T13:28:45;0.35;;;0.35;;
4676;SDS011;2352;48.180;11.478;2022-10-16T13:31:48;0.38;;;0.38;;
4676;SDS011;2352;48.180;11.478;2022-10-16T13:34:52;0.40;;;0.40;;
4676;SDS011;2352;48.180;11.478;2022-10-16T13:38:05;0.57;;;0.50;;
4676;SDS011;2352;48.180;11.478;2022-10-16T13:41:16;0.52;;;0.40;;
4676;SDS011;2352;48.180;11.478;2022-10-16T13:44:21;0.40;;;0.40;;
4676;SDS011;2352;48.180;11.478;2022-10-16T13:47:24;1.23;;;0.35;;
4676;SDS011;2352;48.180;11.478;2022-10-16T13:50:29;0.40;;;0.40;;
4676;SDS011;2352;48.180;11.478;2022-10-16T13:53:32;0.32;;;0.32;;
4676;SDS011;2352;48.180;11.478;2022-10-16T13:56:38;0.60;;;0.60;;
4676;SDS011;2352;48.180;11.478;2022-10-16T13:59:42;0.45;;;0.30;;
4676;SDS011;2352;48.180;11.478;2022-10-16T14:02:45;0.30;;;0.30;;
4676;SDS011;2352;48.180;11.478;2022-10-16T14:05:55;0.30;;;0.30;;
4676;SDS011;2352;48.180;11.478;2022-10-16T14:09:01;0.50;;;0.50;;
4676;SDS011;2352;48.180;11.478;2022-10-16T14:12:10;0.47;;;0.47;;
4676;SDS011;2352;48.180;11.478;2022-10-16T14:15:15;0.52;;;0.52;;
4676;SDS011;2352;48.180;11.478;2022-10-16T14:18:21;5.38;;;0.47;;
4676;SDS011;2352;48.180;11.478;2022-10-16T14:21:26;1.02;;;0.82;;
4676;SDS011;2352;48.180;11.478;2022-10-16T14:24:31;0.32;;;0.32;;
4676;SDS011;2352;48.180;11.478;2022-10-16T14:27:36;1.35;;;0.50;;
4676;SDS011;2352;48.180;11.478;2022-10-16T14:30:48;0.50;;;0.50;;
4676;SDS011;2352;48.180;11.478;2022-10-16T14:33:52;0.40;;;0.40;;
4676;SDS011;2352;48.180;11.478;2022-10-16T14:36:55;0.45;;;0.45;;
4676;SDS011;2352;48.180;11.478;2022-10-16T14:39:58;0.45;;;0.45;;
4676;SDS011;2352;48.180;11.478;2022-10-16T14:43:05;1.38;;;0.63;;
4676;SDS011;2352;48.180;11.478;2022-10-16T14:46:09;0.60;;;0.60;;
4676;SDS011;2352;48.180;11.478;2022-10-16T14:49:16;0.75;;;0.52;;
4676;SDS011;2352;48.180;11.478;2022-10-16T14:52:21;1.17;;;0.77;;
4676;SDS011;2352;48.180;11.478;2022-10-16T14:55:24;6.18;;;1.25;;
4676;SDS011;2352;48.180;11.478;2022-10-16T14:58:29;1.58;;;0.65;;
4676;SDS011;2352;48.180;11.478;2022-10-16T15:01:32;0.93;;;0.35;;
4676;SDS011;2352;48.180;11.478;2022-10-16T15:04:35;4.05;;;0.85;;
4676;SDS011;2352;48.180;11.478;2022-10-16T15:07:37;1.90;;;1.00;;
4676;SDS011;2352;48.180;11.478;2022-10-16T15:10:41;1.88;;;1.10;;
4676;SDS011;2352;48.180;11.478;2022-10-16T15:13:46;0.95;;;0.77;;
4676;SDS011;2352;48.180;11.478;2022-10-16T15:16:49;5.63;;;0.77;;
4676;SDS011;2352;48.180;11.478;2022-10-16T15:19:52;4.07;;;1.00;;
4676;SDS011;2352;48.180;11.478;2022-10-16T15:22:55;0.60;;;0.60;;
4676;SDS011;2352;48.180;11.478;2022-10-16T15:25:58;1.30;;;1.15;;
4676;SDS011;2352;48.180;11.478;2022-10-16T15:29:02;3.35;;;0.98;;
4676;SDS011;2352;48.180;11.478;2022-10-16T15:32:05;0.95;;;0.85;;
4676;SDS011;2352;48.180;11.478;2022-10-16T15:35:09;2.53;;;1.10;;
4676;SDS011;2352;48.180;11.478;2022-10-16T15:38:12;1.38;;;0.80;;
4676;SDS011;2352;48.180;11.478;2022-10-16T15:41:15;0.88;;;0.88;;
4676;SDS011;2352;48.180;11.478;2022-10-16T15:44:20;1.38;;;1.25;;
4676;SDS011;2352;48.180;11.478;2022-10-16T15:47:24;1.48;;;1.23;;
4676;SDS011;2352;48.180;11.478;2022-10-16T15:50:26;1.02;;;1.02;;
4676;SDS011;2352;48.180;11.478;2022-10-16T15:53:29;1.42;;;1.02;;
4676;SDS011;2352;48.180;11.478;2022-10-16T15:56:32;2.65;;;1.27;;
4676;SDS011;2352;48.180;11.478;2022-10-16T15:59:39;2.60;;;1.17;;
4676;SDS011;2352;48.180;11.478;2022-10-16T16:02:42;1.55;;;1.00;;
4676;SDS011;2352;48.180;11.478;2022-10-16T16:05:46;3.13;;;1.65;;
4676;SDS011;2352;48.180;11.478;2022-10-16T16:08:49;8.32;;;2.10;;
4676;SDS011;2352;48.180;11.478;2022-10-16T16:11:51;2.40;;;1.63;;
4676;SDS011;2352;48.180;11.478;2022-10-16T16:14:56;2.72;;;1.63;;
4676;SDS011;2352;48.180;11.478;2022-10-16T16:18:03;2.47;;;2.17;;
4676;SDS011;2352;48.180;11.478;2022-10-16T16:21:12;1.60;;;1.50;;
4676;SDS011;2352;48.180;11.478;2022-10-16T16:24:15;1.88;;;1.70;;
4676;SDS011;2352;48.180;11.478;2022-10-16T16:27:18;2.63;;;1.65;;
4676;SDS011;2352;48.180;11.478;2022-10-16T16:30:23;8.48;;;2.65;;
4676;SDS011;2352;48.180;11.478;2022-10-16T16:33:28;3.17;;;1.90;;
4676;SDS011;2352;48.180;11.478;2022-10-16T16:36:32;2.22;;;1.80;;
4676;SDS011;2352;48.180;11.478;2022-10-16T16:39:35;3.00;;;2.22;;
4676;SDS011;2352;48.180;11.478;2022-10-16T16:42:38;2.85;;;2.22;;
4676;SDS011;2352;48.180;11.478;2022-10-16T16:45:42;6.50;;;2.33;;
4676;SDS011;2352;48.180;11.478;2022-10-16T16:48:45;4.10;;;2.33;;
4676;SDS011;2352;48.180;11.478;2022-10-16T16:51:52;4.70;;;1.65;;
4676;SDS011;2352;48.180;11.478;2022-10-16T16:54:55;4.00;;;2.55;;
4676;SDS011;2352;48.180;11.478;2022-10-16T16:57:58;1.95;;;1.83;;
4676;SDS011;2352;48.180;11.478;2022-10-16T17:01:02;3.90;;;2.38;;
4676;SDS011;2352;48.180;11.478;2022-10-16T17:04:22;3.88;;;3.15;;
4676;SDS011;2352;48.180;11.478;2022-10-16T17:07:24;4.80;;;4.40;;
4676;SDS011;2352;48.180;11.478;2022-10-16T17:10:28;5.93;;;5.40;;
4676;SDS011;2352;48.180;11.478;2022-10-16T17:13:32;7.32;;;5.43;;
4676;SDS011;2352;48.180;11.478;2022-10-16T17:16:39;8.02;;;7.20;;
4676;SDS011;2352;48.180;11.478;2022-10-16T17:19:44;9.27;;;8.38;;
4676;SDS011;2352;48.180;11.478;2022-10-16T17:22:47;10.13;;;9.13;;
4676;SDS011;2352;48.180;11.478;2022-10-16T17:25:50;15.15;;;9.95;;
4676;SDS011;2352;48.180;11.478;2022-10-16T17:28:54;16.33;;;10.73;;
4676;SDS011;2352;48.180;11.478;2022-10-16T17:31:59;12.35;;;9.20;;
4676;SDS011;2352;48.180;11.478;2022-10-16T17:35:03;11.80;;;10.65;;
4676;SDS011;2352;48.180;11.478;2022-10-16T17:38:07;11.13;;;8.68;;
4676;SDS011;2352;48.180;11.478;2022-10-16T17:41:11;13.02;;;8.25;;
4676;SDS011;2352;48.180;11.478;2022-10-16T17:44:14;8.80;;;7.78;;
4676;SDS011;2352;48.180;11.478;2022-10-16T17:47:22;8.38;;;7.60;;
4676;SDS011;2352;48.180;11.478;2022-10-16T17:50:25;9.10;;;7.05;;
4676;SDS011;2352;48.180;11.478;2022-10-16T17:53:28;10.30;;;8.30;;
4676;SDS011;2352;48.180;11.478;2022-10-16T17:56:31;7.53;;;6.72;;
4676;SDS011;2352;48.180;11.478;2022-10-16T17:59:34;7.65;;;5.90;;
4676;SDS011;2352;48.180;11.478;2022-10-16T18:02:38;7.50;;;6.80;;
4676;SDS011;2352;48.180;11.478;2022-10-16T18:05:42;6.15;;;5.55;;
4676;SDS011;2352;48.180;11.478;2022-10-16T18:08:45;7.30;;;6.60;;
4676;SDS011;2352;48.180;11.478;2022-10-16T18:11:48;7.27;;;6.57;;
4676;SDS011;2352;48.180;11.478;2022-10-16T18:14:59;6.87;;;6.27;;
4676;SDS011;2352;48.180;11.478;2022-10-16T18:18:04;6.80;;;6.13;;
4676;SDS011;2352;48.180;11.478;2022-10-16T18:21:08;6.83;;;6.03;;
4676;SDS011;2352;48.180;11.478;2022-10-16T18:24:13;6.30;;;5.70;;
4676;SDS011;2352;48.180;11.478;2022-10-16T18:27:16;6.90;;;6.30;;
4676;SDS011;2352;48.180;11.478;2022-10-16T18:30:20;6.60;;;6.00;;
4676;SDS011;2352;48.180;11.478;2022-10-16T18:33:25;8.73;;;7.93;;
4676;SDS011;2352;48.180;11.478;2022-10-16T18:36:31;7.20;;;6.53;;
4676;SDS011;2352;48.180;11.478;2022-10-16T18:39:35;6.95;;;6.32;;
4676;SDS011;2352;48.180;11.478;2022-10-16T18:42:38;7.17;;;6.40;;
4676;SDS011;2352;48.180;11.478;2022-10-16T18:45:41;6.80;;;6.07;;
4676;SDS011;2352;48.180;11.478;2022-10-16T18:48:45;7.38;;;6.07;;
4676;SDS011;2352;48.180;11.478;2022-10-16T18:51:49;6.53;;;5.60;;
4676;SDS011;2352;48.180;11.478;2022-10-16T18:54:56;4.80;;;4.43;;
4676;SDS011;2352;48.180;11.478;2022-10-16T18:57:59;8.43;;;5.07;;